createdAt,value
2023-02-16T00:00:44.304Z,0.57
2023-02-16T00:05:47.438Z,0.56
2023-02-16T00:11:08.816Z,0.53
2023-02-16T00:16:16.393Z,0.54
2023-02-16T00:21:19.033Z,0.55
2023-02-16T00:26:29.558Z,0.55
2023-02-16T00:31:34.421Z,0.55
2023-02-16T00:36:38.745Z,0.56
2023-02-16T00:41:53.832Z,0.56
2023-02-16T00:46:56.349Z,0.54
2023-02-16T00:51:58.811Z,0.54
2023-02-16T00:57:01.560Z,0.51
2023-02-16T01:02:03.840Z,0.49
2023-02-16T01:07:37.420Z,0.49
2023-02-16T01:12:40.812Z,0.48
2023-02-16T01:17:43.090Z,0.44
2023-02-16T01:22:45.068Z,0.42
2023-02-16T01:27:48.205Z,0.41
2023-02-16T01:32:54.200Z,0.39
2023-02-16T01:37:56.897Z,0.35
2023-02-16T01:43:09.359Z,0.29
2023-02-16T01:48:24.679Z,0.23
2023-02-16T01:53:39.248Z,0.18
2023-02-16T01:58:50.424Z,0.13
2023-02-16T02:04:11.174Z,0.08
2023-02-16T02:09:26.491Z,0.05
2023-02-16T02:14:40.014Z,0.02
2023-02-16T02:19:49.664Z,-0.01
2023-02-16T02:25:10.865Z,-0.02
2023-02-16T02:30:34.906Z,-0.03
2023-02-16T02:35:48.663Z,-0.04
2023-02-16T02:40:57.990Z,-0.06
2023-02-16T02:46:09.042Z,-0.07
2023-02-16T02:51:30.493Z,-0.08
2023-02-16T02:56:58.143Z,-0.10
2023-02-16T03:02:02.743Z,-0.11
2023-02-16T03:07:06.648Z,-0.12
2023-02-16T03:12:29.387Z,-0.13
2023-02-16T03:17:56.654Z,-0.15
2023-02-16T03:23:20.410Z,-0.18
2023-02-16T03:28:46.256Z,-0.22
2023-02-16T03:33:54.752Z,-0.26
2023-02-16T03:39:02.126Z,-0.27
2023-02-16T03:44:04.634Z,-0.27
2023-02-16T03:49:06.807Z,-0.26
2023-02-16T03:54:08.725Z,-0.26
2023-02-16T03:59:10.656Z,-0.28
2023-02-16T04:04:13.278Z,-0.29
2023-02-16T04:09:15.434Z,-0.30
2023-02-16T04:14:18.381Z,-0.31
2023-02-16T04:19:20.303Z,-0.34
2023-02-16T04:24:22.807Z,-0.37
2023-02-16T04:29:27.522Z,-0.39
2023-02-16T04:34:29.458Z,-0.41
2023-02-16T04:39:32.032Z,-0.44
2023-02-16T04:44:37.026Z,-0.46
2023-02-16T04:49:39.809Z,-0.47
2023-02-16T04:54:43.647Z,-0.47
2023-02-16T04:59:46.152Z,-0.47
2023-02-16T05:04:48.915Z,-0.47
2023-02-16T05:09:51.615Z,-0.47
2023-02-16T05:14:56.179Z,-0.47
2023-02-16T05:20:00.748Z,-0.47
2023-02-16T05:25:04.022Z,-0.49
2023-02-16T05:30:07.077Z,-0.49
2023-02-16T05:35:09.232Z,-0.49
2023-02-16T05:40:12.029Z,-0.50
2023-02-16T05:45:14.395Z,-0.50
2023-02-16T05:50:16.625Z,-0.49
2023-02-16T05:55:18.718Z,-0.47
2023-02-16T06:00:21.118Z,-0.45
2023-02-16T06:05:23.062Z,-0.44
2023-02-16T06:10:26.964Z,-0.44
2023-02-16T06:15:29.577Z,-0.41
2023-02-16T06:20:31.595Z,-0.35
2023-02-16T06:25:33.848Z,-0.29
2023-02-16T06:30:36.065Z,-0.23
2023-02-16T06:35:38.656Z,-0.20
2023-02-16T06:40:40.621Z,-0.13
2023-02-16T06:45:43.265Z,-0.04
2023-02-16T06:50:45.479Z,0.08
2023-02-16T06:55:51.018Z,0.20
2023-02-16T07:00:55.465Z,0.36
2023-02-16T07:05:59.187Z,0.53
2023-02-16T07:11:01.390Z,0.69
2023-02-16T07:16:07.106Z,0.88
2023-02-16T07:21:09.375Z,1.06
2023-02-16T07:26:11.805Z,1.26
2023-02-16T07:31:16.854Z,1.45
2023-02-16T07:36:19.513Z,1.60
2023-02-16T07:41:22.673Z,1.73
2023-02-16T07:46:25.078Z,1.86
2023-02-16T07:51:30.927Z,1.98
2023-02-16T07:56:34.051Z,2.10
2023-02-16T08:01:37.962Z,2.23
2023-02-16T08:06:40.221Z,2.35
2023-02-16T08:11:42.669Z,2.47
2023-02-16T08:16:45.369Z,2.58
2023-02-16T08:21:49.409Z,2.70
2023-02-16T08:26:53.776Z,2.84
2023-02-16T08:31:56.811Z,3.01
2023-02-16T08:37:00.392Z,3.22
2023-02-16T08:42:02.550Z,3.37
2023-02-16T08:47:04.484Z,3.53
2023-02-16T08:52:14.989Z,3.71
2023-02-16T08:57:27.175Z,3.89
2023-02-16T09:02:30.179Z,4.06
2023-02-16T09:07:38.096Z,4.18
2023-02-16T09:12:40.520Z,4.30
2023-02-16T09:17:44.283Z,4.43
2023-02-16T09:22:47.638Z,4.55
2023-02-16T09:27:49.979Z,4.63
2023-02-16T09:32:54.110Z,4.70
2023-02-16T09:37:58.476Z,4.86
2023-02-16T09:43:04.912Z,4.98
2023-02-16T09:48:21.744Z,5.11
2023-02-16T09:53:41.082Z,5.18
2023-02-16T09:58:51.747Z,5.26
2023-02-16T10:04:21.534Z,5.43
2023-02-16T10:09:28.130Z,5.55
2023-02-16T10:14:37.881Z,5.61
2023-02-16T10:20:32.591Z,5.71
2023-02-16T10:26:08.855Z,5.78
2023-02-16T10:31:43.345Z,5.88
2023-02-16T10:37:24.417Z,6.02
2023-02-16T10:42:45.268Z,6.10
2023-02-16T10:47:49.452Z,6.17
2023-02-16T10:52:59.420Z,6.27
2023-02-16T10:58:03.779Z,6.42
2023-02-16T11:03:12.670Z,6.56
2023-02-16T11:08:15.252Z,6.65
2023-02-16T11:13:41.899Z,6.78
2023-02-16T11:18:56.168Z,6.97
2023-02-16T11:24:02.066Z,7.13
2023-02-16T11:29:20.346Z,7.25
2023-02-16T11:34:40.071Z,7.32
2023-02-16T11:39:56.444Z,7.39
2023-02-16T11:45:01.913Z,7.46
2023-02-16T11:50:22.776Z,7.47
2023-02-16T11:55:33.503Z,7.45
2023-02-16T12:00:45.435Z,7.49
2023-02-16T12:06:05.360Z,7.55
2023-02-16T12:11:38.401Z,7.62
2023-02-16T12:16:47.641Z,7.71
2023-02-16T12:22:17.627Z,7.64
2023-02-16T12:27:39.983Z,7.58
2023-02-16T12:33:01.265Z,7.67
2023-02-16T12:38:28.716Z,7.76
2023-02-16T12:43:46.901Z,7.77
2023-02-16T12:49:16.737Z,7.69
2023-02-16T12:54:30.532Z,7.66
2023-02-16T12:59:48.749Z,7.72
2023-02-16T13:05:28.463Z,7.70
2023-02-16T13:10:36.584Z,7.68
2023-02-16T13:16:17.373Z,7.64
2023-02-16T13:21:52.998Z,7.57
2023-02-16T13:27:27.829Z,7.46
2023-02-16T13:33:09.428Z,7.41
2023-02-16T13:39:02.430Z,7.35
2023-02-16T13:44:21.135Z,7.28
2023-02-16T13:49:42.553Z,7.24
2023-02-16T13:54:50.112Z,7.22
2023-02-16T14:00:00.866Z,7.15
2023-02-16T14:05:10.019Z,7.05
2023-02-16T14:11:00.730Z,6.98
2023-02-16T14:16:11.281Z,6.95
2023-02-16T14:21:31.594Z,6.86
2023-02-16T14:27:02.900Z,6.78
2023-02-16T14:32:19.542Z,6.68
2023-02-16T14:37:29.590Z,6.64
2023-02-16T14:42:36.117Z,6.57
2023-02-16T14:47:59.040Z,6.43
2023-02-16T14:53:38.927Z,6.24
2023-02-16T14:59:05.464Z,6.04
2023-02-16T15:04:11.007Z,5.87
2023-02-16T15:09:22.828Z,5.70
2023-02-16T15:14:25.937Z,5.51
2023-02-16T15:19:31.213Z,5.35
2023-02-16T15:24:34.367Z,5.25
2023-02-16T15:29:36.530Z,5.19
2023-02-16T15:34:44.717Z,5.08
2023-02-16T15:40:06.099Z,4.93
2023-02-16T15:45:38.420Z,4.77
2023-02-16T15:50:42.687Z,4.64
2023-02-16T15:55:47.530Z,4.51
2023-02-16T16:00:49.550Z,4.36
2023-02-16T16:06:00.451Z,4.18
2023-02-16T16:11:02.914Z,4.01
2023-02-16T16:16:07.131Z,3.85
2023-02-16T16:21:34.127Z,3.72
2023-02-16T16:26:57.883Z,3.59
2023-02-16T16:32:00.932Z,3.45
2023-02-16T16:37:04.277Z,3.34
2023-02-16T16:42:21.949Z,3.23
2023-02-16T16:47:39.956Z,3.12
2023-02-16T16:52:46.507Z,3.00
2023-02-16T16:57:56.764Z,2.89
2023-02-16T17:02:58.691Z,2.78
2023-02-16T17:08:00.959Z,2.67
2023-02-16T17:13:04.364Z,2.57
2023-02-16T17:18:07.327Z,2.48
2023-02-16T17:23:12.442Z,2.38
2023-02-16T17:28:16.699Z,2.29
2023-02-16T17:33:18.767Z,2.21
2023-02-16T17:38:22.624Z,2.16
2023-02-16T17:43:26.792Z,2.09
2023-02-16T17:48:30.365Z,2.03
2023-02-16T17:53:33.133Z,1.95
2023-02-16T17:58:35.428Z,1.90
2023-02-16T18:03:37.843Z,1.85
2023-02-16T18:08:40.061Z,1.81
2023-02-16T18:13:42.439Z,1.76
2023-02-16T18:18:45.593Z,1.71
2023-02-16T18:23:48.157Z,1.66
2023-02-16T18:28:50.259Z,1.60
2023-02-16T18:33:52.447Z,1.53
2023-02-16T18:38:54.518Z,1.45
2023-02-16T18:43:56.721Z,1.36
2023-02-16T18:48:58.831Z,1.30
2023-02-16T18:54:01.425Z,1.26
2023-02-16T18:59:04.134Z,1.23
2023-02-16T19:04:06.924Z,1.19
2023-02-16T19:09:09.217Z,1.14
2023-02-16T19:14:11.905Z,1.09
2023-02-16T19:19:14.103Z,1.04
2023-02-16T19:24:17.161Z,1.00
2023-02-16T19:29:18.978Z,0.94
2023-02-16T19:34:23.090Z,0.87
2023-02-16T19:39:25.786Z,0.81
2023-02-16T19:44:27.697Z,0.79
2023-02-16T19:49:30.278Z,0.75
2023-02-16T19:54:35.070Z,0.69
2023-02-16T19:59:37.061Z,0.63
2023-02-16T20:04:39.186Z,0.59
2023-02-16T20:09:41.841Z,0.57
2023-02-16T20:14:43.821Z,0.56
2023-02-16T20:19:46.592Z,0.55
2023-02-16T20:24:48.588Z,0.53
2023-02-16T20:29:50.763Z,0.51
2023-02-16T20:34:53.456Z,0.45
2023-02-16T20:39:57.538Z,0.42
2023-02-16T20:44:59.981Z,0.39
2023-02-16T20:50:01.862Z,0.35
2023-02-16T20:55:03.971Z,0.29
2023-02-16T21:00:13.628Z,0.23
2023-02-16T21:05:16.558Z,0.17
2023-02-16T21:10:19.504Z,0.11
2023-02-16T21:15:21.405Z,0.06
2023-02-16T21:20:23.338Z,-0.01
2023-02-16T21:25:25.309Z,-0.06
2023-02-16T21:30:27.491Z,-0.11
2023-02-16T21:35:29.681Z,-0.15
2023-02-16T21:40:50.712Z,-0.16
2023-02-16T21:46:01.772Z,-0.16
2023-02-16T21:51:03.765Z,-0.13
2023-02-16T21:56:20.409Z,-0.11
2023-02-16T22:01:25.010Z,-0.10
2023-02-16T22:06:29.743Z,-0.09
2023-02-16T22:11:31.758Z,-0.06
2023-02-16T22:16:36.431Z,-0.03
2023-02-16T22:21:40.435Z,-0.02
2023-02-16T22:26:42.783Z,-0.01
2023-02-16T22:31:49.610Z,0.02
2023-02-16T22:36:51.645Z,0.05
2023-02-16T22:41:53.697Z,0.07
2023-02-16T22:46:55.721Z,0.06
2023-02-16T22:51:57.713Z,0.07
2023-02-16T22:56:59.579Z,0.04
2023-02-16T23:02:01.393Z,0.01
2023-02-16T23:07:03.314Z,-0.03
2023-02-16T23:12:05.211Z,-0.05
2023-02-16T23:17:07.316Z,-0.09
2023-02-16T23:22:09.566Z,-0.14
2023-02-16T23:27:11.591Z,-0.16
2023-02-16T23:32:13.751Z,-0.14
2023-02-16T23:37:15.717Z,-0.07
2023-02-16T23:42:17.512Z,0.00
2023-02-16T23:47:19.836Z,0.08
2023-02-16T23:52:21.856Z,0.15
2023-02-16T23:57:23.939Z,0.23
